createdAt,value
2018-11-04T00:00:59.893Z,30.87
2018-11-04T00:03:29.639Z,30.93
2018-11-04T00:05:59.377Z,29.80
2018-11-04T00:08:29.371Z,28.87
2018-11-04T00:10:59.393Z,31.23
2018-11-04T00:13:29.595Z,28.67
2018-11-04T00:15:59.377Z,28.43
2018-11-04T00:18:29.215Z,29.80
2018-11-04T00:20:58.987Z,30.33
2018-11-04T00:23:28.756Z,31.17
2018-11-04T00:25:58.470Z,30.50
2018-11-04T00:28:28.559Z,29.90
2018-11-04T00:30:58.347Z,28.27
2018-11-04T00:33:28.417Z,29.63
2018-11-04T00:35:58.153Z,28.90
2018-11-04T00:38:28.077Z,32.13
2018-11-04T00:40:59.029Z,29.33
2018-11-04T00:43:28.979Z,27.57
2018-11-04T00:45:58.914Z,28.47
2018-11-04T00:48:28.733Z,27.77
2018-11-04T00:50:58.900Z,29.03
2018-11-04T00:53:28.783Z,28.30
2018-11-04T00:56:00.802Z,28.33
2018-11-04T00:59:02.060Z,26.73
2018-11-04T01:01:32.242Z,26.50
2018-11-04T01:04:01.983Z,27.37
2018-11-04T01:06:33.111Z,26.50
2018-11-04T01:09:02.827Z,26.33
2018-11-04T01:11:32.694Z,24.53
2018-11-04T01:14:02.844Z,27.60
2018-11-04T01:16:32.480Z,27.50
2018-11-04T01:19:02.233Z,26.20
2018-11-04T01:21:32.334Z,27.33
2018-11-04T01:24:02.390Z,25.00
2018-11-04T01:26:32.999Z,24.70
2018-11-04T01:29:02.637Z,25.30
2018-11-04T01:31:32.703Z,24.83
2018-11-04T01:34:02.629Z,24.73
2018-11-04T01:36:32.321Z,23.43
2018-11-04T01:39:02.466Z,23.70
2018-11-04T01:41:32.157Z,23.07
2018-11-04T01:44:01.984Z,22.60
2018-11-04T01:46:31.980Z,23.67
2018-11-04T01:49:01.596Z,22.57
2018-11-04T01:51:31.541Z,23.43
2018-11-04T01:54:01.422Z,22.17
2018-11-04T01:56:31.143Z,22.10
2018-11-04T01:59:01.092Z,22.80
2018-11-04T02:01:30.969Z,22.17
2018-11-04T02:04:00.851Z,21.57
2018-11-04T02:06:30.935Z,22.70
2018-11-04T02:09:00.581Z,22.60
2018-11-04T02:11:30.489Z,22.30
2018-11-04T02:14:00.418Z,22.83
2018-11-04T02:16:30.464Z,22.53
2018-11-04T02:19:00.366Z,22.67
2018-11-04T02:21:29.974Z,22.53
2018-11-04T02:24:00.202Z,20.77
2018-11-04T02:26:30.031Z,22.40
2018-11-04T02:28:59.890Z,22.23
2018-11-04T02:31:29.936Z,24.13
2018-11-04T02:33:59.873Z,23.67
2018-11-04T02:36:29.917Z,22.73
2018-11-04T02:38:59.681Z,22.93
2018-11-04T02:41:29.690Z,21.83
2018-11-04T02:43:59.499Z,22.30
2018-11-04T02:46:29.590Z,22.63
2018-11-04T02:48:59.139Z,22.10
2018-11-04T02:51:28.650Z,22.07
2018-11-04T02:53:58.230Z,22.10
2018-11-04T02:56:27.841Z,22.97
2018-11-04T02:58:57.589Z,22.47
2018-11-04T03:01:27.535Z,23.60
2018-11-04T03:03:57.169Z,22.40
2018-11-04T03:06:27.255Z,25.10
2018-11-04T03:08:56.988Z,24.30
2018-11-04T03:11:26.680Z,22.53
2018-11-04T03:13:56.530Z,24.83
2018-11-04T03:16:26.604Z,22.83
2018-11-04T03:18:56.451Z,22.53
2018-11-04T03:21:26.372Z,21.63
2018-11-04T03:23:56.081Z,23.87
2018-11-04T03:26:26.333Z,23.90
2018-11-04T03:28:56.109Z,24.20
2018-11-04T03:31:25.788Z,24.40
2018-11-04T03:33:55.912Z,23.57
2018-11-04T03:36:25.751Z,24.23
2018-11-04T03:38:55.581Z,22.80
2018-11-04T03:41:25.555Z,21.87
2018-11-04T03:43:55.514Z,22.10
2018-11-04T03:46:25.124Z,22.33
2018-11-04T03:48:54.665Z,22.47
2018-11-04T03:51:24.217Z,22.60
2018-11-04T03:53:53.814Z,23.53
2018-11-04T03:56:23.529Z,22.90
2018-11-04T03:58:53.380Z,22.90
2018-11-04T04:01:23.227Z,24.43
2018-11-04T04:03:53.406Z,24.67
2018-11-04T04:06:23.139Z,24.77
2018-11-04T04:08:53.857Z,24.77
2018-11-04T04:11:23.433Z,25.63
2018-11-04T04:13:53.473Z,26.20
2018-11-04T04:16:23.126Z,25.47
2018-11-04T04:18:52.810Z,24.80
2018-11-04T04:21:22.376Z,24.60
2018-11-04T04:23:52.105Z,25.63
2018-11-04T04:26:21.971Z,27.30
2018-11-04T04:28:51.610Z,36.43
2018-11-04T04:31:21.262Z,25.93
2018-11-04T04:33:51.229Z,25.90
2018-11-04T04:36:20.895Z,27.47
2018-11-04T04:38:51.550Z,25.47
2018-11-04T04:41:21.197Z,24.07
2018-11-04T04:43:51.250Z,25.53
2018-11-04T04:46:21.678Z,27.33
2018-11-04T04:48:51.464Z,25.80
2018-11-04T04:51:21.223Z,27.37
2018-11-04T04:53:51.007Z,26.03
2018-11-04T04:56:20.813Z,27.50
2018-11-04T04:58:50.658Z,25.80
2018-11-04T05:01:20.527Z,25.40
2018-11-04T05:03:50.436Z,24.43
2018-11-04T05:06:20.049Z,24.93
2018-11-04T05:08:49.934Z,25.67
2018-11-04T05:11:20.618Z,25.40
2018-11-04T05:13:50.369Z,26.33
2018-11-04T05:16:19.833Z,27.20
2018-11-04T05:18:49.494Z,26.13
2018-11-04T05:21:19.441Z,28.30
2018-11-04T05:23:49.351Z,27.60
2018-11-04T05:26:19.340Z,27.47
2018-11-04T05:28:49.172Z,28.27
2018-11-04T05:31:19.013Z,41.70
2018-11-04T05:33:49.120Z,30.13
2018-11-04T05:36:18.785Z,29.27
2018-11-04T05:38:48.524Z,30.73
2018-11-04T05:41:18.569Z,29.93
2018-11-04T05:43:48.381Z,39.00
2018-11-04T05:46:18.282Z,32.37
2018-11-04T05:48:48.299Z,34.87
2018-11-04T05:51:18.843Z,37.00
2018-11-04T05:53:48.528Z,32.90
2018-11-04T05:56:18.648Z,31.17
2018-11-04T05:58:48.358Z,32.67
2018-11-04T06:01:18.220Z,30.43
2018-11-04T06:03:48.031Z,30.90
2018-11-04T06:06:17.632Z,33.47
2018-11-04T06:08:47.292Z,30.90
2018-11-04T06:11:17.099Z,30.27
2018-11-04T06:13:47.081Z,43.60
2018-11-04T06:16:17.033Z,30.67
2018-11-04T06:18:47.181Z,30.57
2018-11-04T06:21:17.050Z,31.40
2018-11-04T06:23:46.866Z,32.43
2018-11-04T06:26:16.511Z,31.33
2018-11-04T06:28:46.183Z,34.37
2018-11-04T06:31:15.738Z,34.97
2018-11-04T06:33:45.785Z,33.37
2018-11-04T06:36:15.437Z,31.73
2018-11-04T06:38:45.136Z,30.00
2018-11-04T06:41:15.072Z,31.17
2018-11-04T06:43:44.753Z,32.60
2018-11-04T06:46:14.598Z,31.93
2018-11-04T06:48:49.138Z,33.73
2018-11-04T06:51:19.304Z,30.00
2018-11-04T06:53:48.904Z,30.93
2018-11-04T06:56:19.636Z,32.00
2018-11-04T06:58:50.974Z,62.47
2018-11-04T07:01:20.878Z,35.43
2018-11-04T07:04:01.406Z,34.47
2018-11-04T07:06:31.470Z,32.20
2018-11-04T07:09:01.139Z,31.00
2018-11-04T07:11:30.611Z,31.70
2018-11-04T07:14:00.532Z,32.53
2018-11-04T07:16:30.509Z,31.50
2018-11-04T07:19:00.436Z,30.57
2018-11-04T07:21:30.320Z,29.93
2018-11-04T07:24:00.005Z,30.43
2018-11-04T07:26:29.926Z,28.83
2018-11-04T07:28:59.893Z,29.97
2018-11-04T07:31:29.489Z,30.30
2018-11-04T07:33:59.118Z,29.00
2018-11-04T07:36:29.438Z,28.80
2018-11-04T07:38:59.508Z,28.13
2018-11-04T07:41:29.931Z,26.80
2018-11-04T07:43:59.759Z,25.47
2018-11-04T07:46:29.364Z,26.93
2018-11-04T07:48:58.948Z,26.73
2018-11-04T07:51:28.804Z,25.20
2018-11-04T07:53:59.460Z,25.67
2018-11-04T07:56:29.693Z,25.27
2018-11-04T07:58:59.666Z,26.17
2018-11-04T08:01:29.324Z,26.00
2018-11-04T08:03:59.289Z,25.77
2018-11-04T08:06:29.107Z,26.80
2018-11-04T08:08:58.841Z,25.73
2018-11-04T08:11:28.572Z,29.00
2018-11-04T08:13:58.761Z,28.50
2018-11-04T08:16:28.618Z,27.00
2018-11-04T08:18:58.601Z,28.23
2018-11-04T08:21:28.582Z,29.60
2018-11-04T08:23:58.553Z,29.47
2018-11-04T08:26:28.256Z,27.87
2018-11-04T08:28:58.534Z,28.43
2018-11-04T08:31:28.261Z,26.90
2018-11-04T08:33:58.486Z,26.53
2018-11-04T08:36:28.160Z,26.70
2018-11-04T08:38:57.997Z,28.23
2018-11-04T08:41:28.554Z,23.77
2018-11-04T08:43:58.535Z,21.50
2018-11-04T08:46:28.029Z,24.90
2018-11-04T08:48:57.588Z,23.37
2018-11-04T08:51:27.328Z,22.37
2018-11-04T08:53:57.509Z,25.00
2018-11-04T08:56:27.096Z,24.40
2018-11-04T08:58:57.526Z,23.57
2018-11-04T09:01:27.112Z,23.27
2018-11-04T09:03:57.268Z,21.13
2018-11-04T09:06:26.879Z,22.70
2018-11-04T09:08:56.542Z,21.97
2018-11-04T09:11:26.472Z,19.13
2018-11-04T09:13:56.171Z,18.30
2018-11-04T09:16:25.795Z,17.57
2018-11-04T09:18:55.669Z,18.70
2018-11-04T09:21:25.628Z,18.67
2018-11-04T09:23:55.457Z,17.33
2018-11-04T09:26:25.238Z,16.73
2018-11-04T09:28:57.921Z,17.13
2018-11-04T09:31:27.832Z,18.47
2018-11-04T09:33:57.797Z,19.00
2018-11-04T09:36:27.713Z,18.57
2018-11-04T09:38:57.710Z,18.57
2018-11-04T09:41:27.588Z,18.40
2018-11-04T09:43:57.487Z,18.60
2018-11-04T09:46:27.707Z,21.77
2018-11-04T09:48:57.687Z,21.43
2018-11-04T09:51:27.603Z,17.87
2018-11-04T09:53:57.139Z,19.20
2018-11-04T09:56:27.239Z,18.50
2018-11-04T09:58:56.971Z,17.87
2018-11-04T10:01:26.720Z,18.73
2018-11-04T10:03:56.644Z,19.73
2018-11-04T10:06:26.409Z,17.63
2018-11-04T10:08:56.179Z,18.13
2018-11-04T10:11:26.381Z,17.63
2018-11-04T10:13:56.086Z,18.43
2018-11-04T10:16:26.018Z,19.33
2018-11-04T10:18:55.824Z,19.07
2018-11-04T10:21:25.625Z,18.43
2018-11-04T10:23:55.866Z,17.87
2018-11-04T10:26:25.656Z,18.27
2018-11-04T10:28:55.928Z,18.57
2018-11-04T10:31:25.496Z,20.20
2018-11-04T10:33:55.420Z,21.67
2018-11-04T10:36:25.336Z,21.93
2018-11-04T10:38:54.930Z,20.87
2018-11-04T10:41:24.429Z,18.67
2018-11-04T10:43:54.478Z,19.60
2018-11-04T10:46:24.209Z,18.47
2018-11-04T10:48:54.421Z,18.23
2018-11-04T10:51:24.158Z,19.40
2018-11-04T10:53:55.231Z,20.97
2018-11-04T10:56:25.995Z,19.43
2018-11-04T10:58:55.636Z,19.53
2018-11-04T11:01:25.357Z,25.50
2018-11-04T11:03:55.064Z,21.57
2018-11-04T11:06:24.977Z,21.13
2018-11-04T11:08:54.762Z,20.70
2018-11-04T11:11:24.714Z,20.13
2018-11-04T11:13:54.500Z,19.87
2018-11-04T11:16:24.241Z,20.50
2018-11-04T11:18:54.226Z,21.20
2018-11-04T11:21:24.083Z,20.57
2018-11-04T11:23:53.824Z,21.33
2018-11-04T11:26:23.283Z,21.97
2018-11-04T11:28:53.149Z,19.37
2018-11-04T11:31:23.084Z,20.27
2018-11-04T11:33:52.819Z,19.87
2018-11-04T11:36:22.956Z,18.23
2018-11-04T11:38:52.986Z,17.93
2018-11-04T11:41:23.042Z,18.03
2018-11-04T11:43:53.101Z,17.50
2018-11-04T11:46:23.006Z,17.17
2018-11-04T11:48:52.938Z,18.23
2018-11-04T11:51:22.936Z,17.10
2018-11-04T11:53:52.800Z,16.90
2018-11-04T11:56:22.855Z,17.03
2018-11-04T11:58:52.620Z,17.53
2018-11-04T12:01:22.626Z,12.73
2018-11-04T12:03:52.863Z,13.43
2018-11-04T12:06:22.909Z,11.60
2018-11-04T12:08:53.502Z,12.83
2018-11-04T12:11:23.478Z,12.70
2018-11-04T12:13:53.503Z,13.87
2018-11-04T12:16:23.565Z,13.83
2018-11-04T12:18:53.302Z,14.00
2018-11-04T12:21:23.394Z,13.83
2018-11-04T12:23:54.498Z,14.77
2018-11-04T12:26:24.463Z,14.47
2018-11-04T12:28:54.332Z,15.23
2018-11-04T12:31:24.161Z,15.13
2018-11-04T12:33:54.276Z,14.37
2018-11-04T12:36:23.951Z,14.17
2018-11-04T12:38:54.027Z,16.33
2018-11-04T12:41:23.762Z,14.87
2018-11-04T12:43:53.542Z,15.23
2018-11-04T12:46:23.548Z,13.90
2018-11-04T12:48:53.348Z,14.13
2018-11-04T12:51:23.425Z,14.13
2018-11-04T12:53:53.225Z,14.30
2018-11-04T12:56:23.208Z,14.13
2018-11-04T12:58:53.593Z,13.60
2018-11-04T13:01:23.600Z,15.33
2018-11-04T13:03:53.342Z,15.13
2018-11-04T13:06:23.968Z,13.33
2018-11-04T13:08:54.067Z,14.43
2018-11-04T13:11:23.939Z,13.00
2018-11-04T13:13:54.911Z,11.63
2018-11-04T13:16:24.609Z,11.37
2018-11-04T13:18:54.657Z,10.93
2018-11-04T13:21:24.641Z,12.87
2018-11-04T13:23:54.732Z,12.43
2018-11-04T13:26:24.629Z,9.80
2018-11-04T13:28:54.458Z,9.67
2018-11-04T13:31:24.314Z,9.57
2018-11-04T13:33:54.127Z,9.47
2018-11-04T13:36:23.740Z,10.47
2018-11-04T13:38:53.664Z,10.10
2018-11-04T13:41:23.455Z,9.20
2018-11-04T13:43:53.878Z,9.63
2018-11-04T13:46:23.849Z,10.80
2018-11-04T13:48:53.867Z,9.40
2018-11-04T13:51:23.829Z,8.77
2018-11-04T13:53:53.831Z,9.13
2018-11-04T13:56:23.652Z,10.27
2018-11-04T13:58:54.501Z,9.80
2018-11-04T14:01:24.435Z,9.57
2018-11-04T14:03:54.482Z,9.40
2018-11-04T14:06:24.333Z,9.20
2018-11-04T14:08:54.289Z,10.40
2018-11-04T14:11:24.840Z,8.37
2018-11-04T14:13:54.706Z,9.27
2018-11-04T14:16:24.787Z,7.57
2018-11-04T14:18:54.716Z,7.87
2018-11-04T14:21:24.573Z,8.03
2018-11-04T14:23:54.729Z,8.30
2018-11-04T14:26:24.390Z,7.63
2018-11-04T14:28:54.392Z,7.53
2018-11-04T14:31:24.232Z,8.30
2018-11-04T14:33:53.941Z,7.40
2018-11-04T14:36:24.623Z,6.37
2018-11-04T14:38:55.663Z,6.60
2018-11-04T14:41:25.380Z,7.20
2018-11-04T14:43:55.651Z,7.20
2018-11-04T14:46:26.234Z,5.77
2018-11-04T14:48:56.407Z,6.97
2018-11-04T14:51:26.242Z,7.73
2018-11-04T14:53:56.252Z,7.23
2018-11-04T14:56:28.848Z,7.53
2018-11-04T14:58:59.173Z,6.63
2018-11-04T15:01:29.242Z,7.90
2018-11-04T15:03:59.236Z,7.30
2018-11-04T15:06:29.102Z,7.63
2018-11-04T15:08:58.998Z,8.10
2018-11-04T15:11:28.875Z,7.33
2018-11-04T15:13:58.617Z,8.90
2018-11-04T15:16:28.217Z,16.47
2018-11-04T15:18:58.303Z,14.30
2018-11-04T15:21:28.441Z,12.97
2018-11-04T15:23:58.388Z,16.17
2018-11-04T15:26:28.148Z,16.03
2018-11-04T15:28:58.047Z,17.63
2018-11-04T15:31:28.908Z,16.97
2018-11-04T15:33:59.099Z,16.80
2018-11-04T15:36:28.976Z,16.67
2018-11-04T15:38:59.040Z,18.37
2018-11-04T15:41:28.867Z,19.90
2018-11-04T15:43:58.965Z,18.40
2018-11-04T15:46:28.719Z,17.23
2018-11-04T15:48:58.641Z,18.17
2018-11-04T15:51:28.873Z,16.23
2018-11-04T15:53:58.861Z,14.67
2018-11-04T15:56:28.910Z,14.60
2018-11-04T15:58:59.049Z,14.13
2018-11-04T16:01:29.735Z,15.87
2018-11-04T16:03:59.788Z,15.87
2018-11-04T16:06:30.416Z,15.70
2018-11-04T16:09:00.225Z,13.27
2018-11-04T16:11:30.189Z,12.57
2018-11-04T16:14:00.018Z,12.30
2018-11-04T16:16:29.726Z,11.83
2018-11-04T16:18:59.769Z,14.10
2018-11-04T16:21:29.705Z,23.57
2018-11-04T16:23:59.695Z,24.00
2018-11-04T16:26:30.323Z,23.83
2018-11-04T16:29:00.221Z,24.63
2018-11-04T16:31:30.670Z,24.67
2018-11-04T16:34:00.356Z,23.03
2018-11-04T16:36:30.250Z,21.73
2018-11-04T16:39:00.189Z,20.17
2018-11-04T16:41:30.113Z,22.20
2018-11-04T16:44:00.238Z,19.40
2018-11-04T16:46:30.307Z,20.30
2018-11-04T16:49:00.021Z,31.37
2018-11-04T16:51:30.039Z,24.47
2018-11-04T16:54:00.076Z,24.97
2018-11-04T16:56:30.022Z,22.10
2018-11-04T16:58:59.876Z,20.93
2018-11-04T17:01:29.616Z,21.73
2018-11-04T17:04:00.090Z,21.93
2018-11-04T17:06:29.749Z,24.23
2018-11-04T17:08:59.791Z,20.40
2018-11-04T17:11:30.192Z,15.87
2018-11-04T17:13:59.872Z,17.20
2018-11-04T17:16:29.865Z,24.57
2018-11-04T17:18:59.832Z,23.13
2018-11-04T17:21:29.594Z,17.40
2018-11-04T17:24:00.590Z,13.93
2018-11-04T17:26:30.527Z,12.93
2018-11-04T17:29:00.792Z,13.67
2018-11-04T17:31:30.321Z,11.63
2018-11-04T17:34:00.269Z,17.40
2018-11-04T17:36:30.852Z,16.30
2018-11-04T17:39:00.817Z,13.67
2018-11-04T17:41:30.664Z,13.53
2018-11-04T17:44:00.894Z,17.33
2018-11-04T17:46:31.189Z,23.43
2018-11-04T17:49:00.932Z,19.40
2018-11-04T17:51:30.963Z,13.30
2018-11-04T17:54:00.836Z,11.67
2018-11-04T17:56:30.736Z,13.83
2018-11-04T17:59:00.819Z,12.13
2018-11-04T18:01:30.865Z,12.60
2018-11-04T18:04:00.642Z,11.33
2018-11-04T18:06:30.199Z,11.23
2018-11-04T18:09:00.105Z,21.57
2018-11-04T18:11:30.040Z,22.30
2018-11-04T18:13:59.683Z,20.63
2018-11-04T18:16:29.629Z,20.17
2018-11-04T18:18:59.606Z,26.80
2018-11-04T18:21:29.408Z,23.30
2018-11-04T18:23:59.391Z,21.27
2018-11-04T18:26:29.046Z,27.57
2018-11-04T18:28:58.519Z,26.30
2018-11-04T18:31:27.989Z,25.83
2018-11-04T18:33:57.488Z,26.03
2018-11-04T18:36:26.969Z,24.90
2018-11-04T18:38:56.468Z,27.13
2018-11-04T18:41:26.531Z,26.23
2018-11-04T18:43:56.561Z,24.50
2018-11-04T18:46:27.222Z,24.77
2018-11-04T18:48:57.420Z,25.93
2018-11-04T18:51:26.872Z,24.60
2018-11-04T18:53:56.358Z,26.07
2018-11-04T18:56:26.223Z,30.70
2018-11-04T18:58:56.588Z,26.53
2018-11-04T19:01:26.763Z,28.40
2018-11-04T19:03:56.359Z,27.30
2018-11-04T19:06:25.856Z,28.53
2018-11-04T19:08:55.981Z,25.87
2018-11-04T19:11:25.761Z,24.47
2018-11-04T19:13:56.379Z,25.23
2018-11-04T19:16:26.448Z,27.37
2018-11-04T19:18:56.231Z,29.17
2018-11-04T19:21:25.696Z,25.03
2018-11-04T19:23:55.178Z,22.40
2018-11-04T19:26:24.630Z,23.17
2018-11-04T19:28:54.067Z,26.83
2018-11-04T19:31:24.480Z,26.90
2018-11-04T19:33:54.050Z,27.37
2018-11-04T19:36:24.204Z,35.37
2018-11-04T19:38:54.019Z,29.30
2018-11-04T19:41:23.476Z,26.07
2018-11-04T19:43:53.022Z,28.57
2018-11-04T19:46:22.609Z,32.53
2018-11-04T19:48:52.173Z,36.30
2018-11-04T19:51:21.577Z,30.60
2018-11-04T19:53:51.055Z,32.70
2018-11-04T19:56:20.586Z,33.93
2018-11-04T19:58:50.085Z,35.13
2018-11-04T20:01:19.564Z,37.17
2018-11-04T20:03:48.939Z,35.83
2018-11-04T20:06:19.364Z,44.70
2018-11-04T20:08:53.880Z,36.90
2018-11-04T20:11:23.344Z,36.90
2018-11-04T20:13:57.994Z,37.83
2018-11-04T20:16:27.962Z,37.77
2018-11-04T20:20:05.860Z,38.47
2018-11-04T20:22:35.207Z,36.03
2018-11-04T20:25:09.743Z,43.80
2018-11-04T20:27:40.240Z,38.47
2018-11-04T20:30:11.519Z,37.37
2018-11-04T20:32:47.112Z,37.50
2018-11-04T20:35:17.294Z,39.73
2018-11-04T20:37:47.044Z,34.33
2018-11-04T20:40:21.890Z,32.73
2018-11-04T20:42:51.382Z,35.27
2018-11-04T20:45:20.931Z,36.40
2018-11-04T20:48:52.874Z,34.20
2018-11-04T20:51:22.362Z,33.53
2018-11-04T20:53:51.850Z,33.40
2018-11-04T20:56:26.434Z,41.90
2018-11-04T20:58:55.976Z,35.93
2018-11-04T21:01:25.948Z,38.80
2018-11-04T21:03:55.725Z,34.77
2018-11-04T21:06:25.836Z,32.43
2018-11-04T21:08:55.563Z,34.67
2018-11-04T21:11:25.381Z,39.13
2018-11-04T21:13:55.317Z,36.87
2018-11-04T21:16:25.178Z,36.17
2018-11-04T21:18:54.661Z,34.97
2018-11-04T21:21:24.389Z,38.30
2018-11-04T21:23:54.369Z,34.73
2018-11-04T21:26:24.067Z,33.50
2018-11-04T21:28:54.155Z,38.97
2018-11-04T21:31:24.030Z,36.40
2018-11-04T21:33:54.213Z,34.73
2018-11-04T21:36:25.238Z,38.13
2018-11-04T21:38:56.043Z,35.67
2018-11-04T21:41:26.380Z,37.47
2018-11-04T21:43:56.824Z,35.23
2018-11-04T21:46:26.929Z,37.87
2018-11-04T21:48:56.601Z,39.10
2018-11-04T21:51:26.580Z,37.87
2018-11-04T21:53:56.465Z,42.90
2018-11-04T21:56:26.749Z,37.97
2018-11-04T21:58:56.652Z,36.93
2018-11-04T22:01:26.493Z,36.77
2018-11-04T22:03:56.476Z,35.10
2018-11-04T22:06:26.192Z,35.33
2018-11-04T22:08:55.969Z,51.13
2018-11-04T22:11:25.877Z,43.87
2018-11-04T22:13:56.011Z,89.30
2018-11-04T22:16:25.883Z,36.27
2018-11-04T22:18:55.925Z,37.87
2018-11-04T22:21:25.766Z,32.00
2018-11-04T22:23:55.522Z,28.60
2018-11-04T22:26:25.391Z,30.33
2018-11-04T22:28:55.499Z,28.50
2018-11-04T22:31:25.015Z,29.03
2018-11-04T22:33:54.506Z,37.10
2018-11-04T22:36:24.902Z,58.33
2018-11-04T22:38:54.372Z,28.83
2018-11-04T22:41:23.774Z,26.67
2018-11-04T22:43:53.262Z,26.50
2018-11-04T22:46:22.754Z,28.87
2018-11-04T22:48:52.237Z,27.00
2018-11-04T22:51:21.700Z,27.00
2018-11-04T22:53:51.183Z,27.27
2018-11-04T22:56:20.728Z,25.77
2018-11-04T22:58:51.136Z,27.23
2018-11-04T23:01:20.718Z,24.90
2018-11-04T23:03:50.179Z,26.27
2018-11-04T23:06:19.646Z,25.73
2018-11-04T23:08:49.180Z,26.83
2018-11-04T23:11:18.722Z,43.23
2018-11-04T23:13:48.168Z,25.77
2018-11-04T23:16:17.591Z,28.03
2018-11-04T23:18:47.117Z,24.97
2018-11-04T23:21:16.635Z,24.63
2018-11-04T23:23:47.093Z,25.07
2018-11-04T23:26:16.591Z,23.27
2018-11-04T23:28:46.502Z,48.53
2018-11-04T23:31:16.477Z,29.43
2018-11-04T23:33:45.936Z,29.17
2018-11-04T23:36:15.376Z,27.80
2018-11-04T23:38:45.738Z,26.13
2018-11-04T23:41:15.306Z,26.20
2018-11-04T23:43:44.798Z,27.83
2018-11-04T23:46:14.194Z,27.23
2018-11-04T23:48:43.719Z,25.97
2018-11-04T23:51:13.465Z,27.50
2018-11-04T23:53:43.355Z,29.60
2018-11-04T23:56:13.181Z,30.20
2018-11-04T23:58:42.724Z,26.00
